Terminal Aerodrome Forecast
Issued by NWS

Home | Current Version | Previous Version | Graphics & Text | Print | Product List | Glossary On
Versions: 1 2 3 4 5 6 7 8 9 10 11 12 13 14 15 16 17
000
FTUS43 KGRB 180500
TAFATW
TAF
KATW 180534Z 1806/1906 26008KT P6SM OVC021
      TEMPO 1806/1810 OVC016
     FM181000 34005KT P6SM BKN023
     FM181900 36004KT P6SM SCT027
     FM190100 35002KT P6SM SKC=

USA.gov is the U.S. government's official web portal to all federal, state and local government web resources and services.